Time;durP1;ratioP1;P1;durP2;ratioP2;P2;SDS_P1;SDS_P2;PMS_P1;PMS_P2;Temp;Humidity;BMP_temperature;BMP_pressure;BME280_temperature;BME280_humidity;BME280_pressure;Samples;Min_cycle;Max_cycle;Signal;HPM_P1;HPM_P2
2021/03/25 00:01:06;;;;;;;33.97;18.80;;;7.00;54.70;;;;;;5071865;28;20016;-88
2021/03/25 00:03:32;;;;;;;55.42;27.02;;;6.90;55.10;;;;;;5057465;28;20378;-88
2021/03/25 00:05:58;;;;;;;58.65;30.10;;;6.90;55.30;;;;;;5054133;28;20020;-84
2021/03/25 00:08:25;;;;;;;64.13;32.58;;;6.90;55.40;;;;;;5070710;28;20035;-82
2021/03/25 00:10:51;;;;;;;82.57;39.20;;;6.90;55.60;;;;;;5055657;28;20031;-89
2021/03/25 00:13:17;;;;;;;89.10;41.88;;;6.90;55.50;;;;;;5056689;28;20068;-86
2021/03/25 00:15:44;;;;;;;96.28;41.05;;;6.80;55.30;;;;;;5054761;28;20025;-82
2021/03/25 00:18:12;;;;;;;59.83;28.25;;;6.80;55.40;;;;;;5057104;28;20028;-87
2021/03/25 00:20:38;;;;;;;63.20;29.00;;;6.80;55.30;;;;;;5068231;28;20025;-86
2021/03/25 00:23:04;;;;;;;128.82;50.40;;;6.80;55.30;;;;;;5077153;28;20016;-84
2021/03/25 00:25:33;;;;;;;82.40;35.58;;;6.80;55.50;;;;;;5057402;28;20104;-87
2021/03/25 00:27:59;;;;;;;175.60;70.00;;;6.70;55.60;;;;;;5056672;28;20057;-85
2021/03/25 00:30:28;;;;;;;183.27;70.45;;;6.70;55.70;;;;;;5057704;28;20054;-83
2021/03/25 00:32:55;;;;;;;130.75;53.55;;;6.70;55.90;;;;;;5056866;28;20021;-86
2021/03/25 00:35:22;;;;;;;69.80;32.05;;;6.70;55.70;;;;;;5056438;28;20061;-83
2021/03/25 00:37:48;;;;;;;45.85;22.67;;;6.70;55.70;;;;;;5055799;28;20475;-86
2021/03/25 00:40:14;;;;;;;38.05;20.58;;;6.60;55.70;;;;;;5073759;28;20021;-84
2021/03/25 00:42:40;;;;;;;34.55;19.92;;;6.60;55.70;;;;;;5082571;28;20028;-81
2021/03/25 00:45:20;;;;;;;34.25;19.55;;;6.60;55.80;;;;;;5065536;28;20025;-80
2021/03/25 00:47:46;;;;;;;49.40;22.58;;;6.60;55.90;;;;;;5063387;28;20025;-82
2021/03/25 00:50:37;;;;;;;137.13;49.00;;;6.60;55.80;;;;;;5056679;28;20131;-87
2021/03/25 00:53:03;;;;;;;233.18;82.57;;;6.50;55.90;;;;;;5053710;28;20041;-81
2021/03/25 00:55:29;;;;;;;170.57;58.75;;;6.50;55.90;;;;;;5052347;28;20021;-87
2021/03/25 00:57:55;;;;;;;76.22;33.13;;;6.50;55.90;;;;;;5052491;28;20025;-86
2021/03/25 01:00:25;;;;;;;43.42;22.20;;;6.40;55.90;;;;;;5055151;28;20363;-83
2021/03/25 01:02:52;;;;;;;49.00;24.13;;;6.40;56.10;;;;;;5061079;28;20078;-83
2021/03/25 01:05:19;;;;;;;80.07;35.53;;;6.40;56.10;;;;;;5054265;28;20505;-84
2021/03/25 01:07:44;;;;;;;74.68;33.03;;;6.40;56.10;;;;;;5053617;28;20044;-84
2021/03/25 01:10:34;;;;;;;55.67;25.00;;;6.40;56.00;;;;;;5058072;28;20418;-87
2021/03/25 01:13:02;;;;;;;37.08;20.05;;;6.30;56.00;;;;;;5063969;28;20025;-85
2021/03/25 01:15:28;;;;;;;36.35;19.15;;;6.30;55.90;;;;;;5073579;28;20032;-82
2021/03/25 01:17:57;;;;;;;30.42;17.15;;;6.30;56.00;;;;;;5063599;28;20032;-86
2021/03/25 01:20:33;;;;;;;31.45;16.05;;;6.30;56.00;;;;;;5053602;28;20029;-86
2021/03/25 01:23:00;;;;;;;29.98;15.45;;;6.30;56.00;;;;;;5055164;28;20500;-85
2021/03/25 01:25:27;;;;;;;33.35;18.52;;;6.30;56.00;;;;;;5067070;28;20025;-84
2021/03/25 01:27:58;;;;;;;32.28;17.75;;;6.20;56.20;;;;;;5063686;28;20021;-85
2021/03/25 01:30:25;;;;;;;37.42;20.35;;;6.20;56.20;;;;;;5071368;28;20024;-82
2021/03/25 01:32:52;;;;;;;40.65;20.95;;;6.20;56.40;;;;;;5057896;28;20036;-82
2021/03/25 01:35:18;;;;;;;40.78;22.52;;;6.20;56.50;;;;;;5051508;28;20039;-83
2021/03/25 01:37:45;;;;;;;55.10;31.63;;;6.20;56.50;;;;;;5056053;28;20036;-85
2021/03/25 01:40:20;;;;;;;82.00;42.40;;;6.20;56.70;;;;;;5051940;28;20033;-83
2021/03/25 01:42:46;;;;;;;67.65;35.50;;;6.10;56.90;;;;;;5051474;28;20112;-83
2021/03/25 01:45:30;;;;;;;50.13;27.40;;;6.10;56.80;;;;;;5055430;28;20021;-84
2021/03/25 01:47:57;;;;;;;85.25;44.25;;;6.10;56.80;;;;;;5056574;28;20067;-83
2021/03/25 01:50:23;;;;;;;80.38;40.25;;;6.10;56.80;;;;;;5055131;28;20139;-83
2021/03/25 01:53:09;;;;;;;66.15;33.38;;;6.10;56.90;;;;;;5060230;28;20067;-82
2021/03/25 01:55:58;;;;;;;45.60;23.63;;;6.10;56.90;;;;;;5058828;28;20036;-83
2021/03/25 01:59:03;;;;;;;35.50;19.27;;;6.10;56.80;;;;;;5073446;28;20111;-81
2021/03/25 02:01:52;;;;;;;36.08;18.83;;;6.00;56.80;;;;;;5055399;28;20032;-82
2021/03/25 02:04:52;;;;;;;39.28;20.52;;;6.00;56.80;;;;;;5056357;28;20124;-83
2021/03/25 02:07:52;;;;;;;32.95;18.25;;;6.00;56.70;;;;;;5056344;28;20489;-84
2021/03/25 02:10:54;;;;;;;31.48;17.73;;;6.00;56.70;;;;;;5054854;28;20064;-83
2021/03/25 02:13:55;;;;;;;32.95;17.90;;;5.90;56.70;;;;;;5069178;28;20028;-82
2021/03/25 02:16:37;;;;;;;30.45;15.93;;;5.90;56.70;;;;;;5057808;28;20033;-83
2021/03/25 02:19:30;;;;;;;41.78;20.48;;;5.90;56.70;;;;;;5059496;28;20117;-82
2021/03/25 02:22:05;;;;;;;34.42;18.08;;;5.90;57.00;;;;;;5070826;28;20024;-84
2021/03/25 02:24:52;;;;;;;34.67;19.45;;;5.90;57.10;;;;;;5075728;28;20241;-84
2021/03/25 02:27:44;;;;;;;35.70;19.55;;;5.80;57.60;;;;;;5070116;28;20025;-82
2021/03/25 02:30:12;;;;;;;41.33;20.02;;;5.80;57.60;;;;;;5058934;28;20474;-82
2021/03/25 02:32:45;;;;;;;33.30;18.67;;;5.90;57.60;;;;;;5070879;28;20426;-86
2021/03/25 02:35:32;;;;;;;33.63;17.02;;;5.80;57.50;;;;;;5056004;28;20040;-83
2021/03/25 02:38:19;;;;;;;29.83;15.38;;;5.80;57.40;;;;;;5066241;28;20032;-81
2021/03/25 02:40:52;;;;;;;38.28;19.50;;;5.80;57.30;;;;;;5066115;28;20021;-83
2021/03/25 02:43:26;;;;;;;35.30;18.52;;;5.80;57.50;;;;;;5062308;28;20017;-82
2021/03/25 02:46:01;;;;;;;30.70;17.47;;;5.80;57.70;;;;;;5059528;28;20040;-84
2021/03/25 02:48:30;;;;;;;39.22;20.02;;;5.80;57.60;;;;;;5056749;28;20466;-83
2021/03/25 02:51:02;;;;;;;38.15;20.33;;;5.80;57.70;;;;;;5054866;28;20102;-82
2021/03/25 02:53:34;;;;;;;41.33;19.73;;;5.80;57.80;;;;;;5054475;28;20082;-84
2021/03/25 02:56:29;;;;;;;40.80;21.70;;;5.80;57.70;;;;;;5054259;28;20117;-85
2021/03/25 02:59:03;;;;;;;47.47;26.55;;;5.80;58.00;;;;;;5055306;28;20021;-83
2021/03/25 03:01:33;;;;;;;50.08;26.70;;;5.80;58.00;;;;;;5054029;28;20021;-85
2021/03/25 03:04:22;;;;;;;37.75;21.63;;;5.70;57.90;;;;;;5054214;28;20021;-82
2021/03/25 03:06:55;;;;;;;36.38;21.73;;;5.70;57.80;;;;;;5053859;28;20032;-82
2021/03/25 03:09:40;;;;;;;35.00;19.45;;;5.70;57.70;;;;;;5053708;28;20039;-84
2021/03/25 03:12:21;;;;;;;33.50;18.35;;;5.70;57.80;;;;;;5054024;28;20059;-83
2021/03/25 03:14:54;;;;;;;36.00;18.65;;;5.60;57.70;;;;;;5053649;28;20053;-84
2021/03/25 03:17:29;;;;;;;30.42;16.70;;;5.60;57.80;;;;;;5070818;28;20025;-84
2021/03/25 03:20:04;;;;;;;46.28;19.13;;;5.60;57.80;;;;;;5070392;28;20032;-82
2021/03/25 03:22:29;;;;;;;37.55;18.60;;;5.60;57.90;;;;;;5058846;28;20100;-81
2021/03/25 03:24:55;;;;;;;46.47;17.50;;;5.60;57.90;;;;;;5074872;28;20108;-83
2021/03/25 03:27:41;;;;;;;29.88;16.20;;;5.60;57.90;;;;;;5067605;28;20083;-85
2021/03/25 03:30:13;;;;;;;34.63;17.40;;;5.60;57.90;;;;;;5053615;28;20033;-82
2021/03/25 03:32:52;;;;;;;33.78;16.70;;;5.60;57.90;;;;;;5054965;28;20035;-82
2021/03/25 03:35:27;;;;;;;33.28;16.75;;;5.50;57.90;;;;;;5053241;28;20029;-85
2021/03/25 03:38:01;;;;;;;32.63;16.48;;;5.50;57.90;;;;;;5054712;28;20470;-83
2021/03/25 03:40:32;;;;;;;35.15;18.80;;;5.50;58.00;;;;;;5054144;28;20108;-83
2021/03/25 03:43:11;;;;;;;27.73;16.08;;;5.50;58.20;;;;;;5054303;28;20036;-85
2021/03/25 03:45:42;;;;;;;30.83;16.85;;;5.50;58.40;;;;;;5054348;28;20382;-82
2021/03/25 03:48:15;;;;;;;30.70;17.40;;;5.50;58.30;;;;;;5054196;28;20031;-83
2021/03/25 03:50:47;;;;;;;36.92;20.92;;;5.50;58.40;;;;;;5053005;28;20150;-84
2021/03/25 03:53:13;;;;;;;39.08;19.85;;;5.50;58.60;;;;;;5053665;28;20442;-83
2021/03/25 03:55:39;;;;;;;32.85;17.42;;;5.50;58.80;;;;;;5053870;28;20025;-84
2021/03/25 03:58:34;;;;;;;32.10;18.95;;;5.50;58.90;;;;;;5053736;28;20493;-83
2021/03/25 04:01:15;;;;;;;28.30;15.73;;;5.50;58.80;;;;;;5070247;28;20043;-84
2021/03/25 04:03:47;;;;;;;33.22;18.13;;;5.50;59.20;;;;;;5053624;28;20119;-84
2021/03/25 04:06:20;;;;;;;39.88;20.92;;;5.50;58.80;;;;;;5053560;28;20498;-81
2021/03/25 04:08:58;;;;;;;37.17;20.20;;;5.50;59.30;;;;;;5053666;28;20439;-85
2021/03/25 04:11:37;;;;;;;34.17;18.63;;;5.50;59.50;;;;;;5053768;28;20029;-84
2021/03/25 04:14:18;;;;;;;30.27;16.48;;;5.50;59.70;;;;;;5065563;28;20021;-82
2021/03/25 04:16:46;;;;;;;36.63;20.25;;;5.50;59.40;;;;;;5057173;28;20032;-83
2021/03/25 04:19:24;;;;;;;31.63;16.95;;;5.50;59.50;;;;;;5073342;28;20493;-83
2021/03/25 04:22:03;;;;;;;30.83;16.92;;;5.50;60.10;;;;;;5067996;28;20423;-83
2021/03/25 04:24:33;;;;;;;37.75;19.30;;;5.50;59.50;;;;;;5071672;28;20024;-83
2021/03/25 04:27:11;;;;;;;27.77;17.05;;;5.50;59.40;;;;;;5068339;28;20478;-82
2021/03/25 04:29:42;;;;;;;30.58;16.50;;;5.50;59.30;;;;;;5054457;28;20025;-82
2021/03/25 04:32:09;;;;;;;33.92;16.77;;;5.50;59.30;;;;;;5053049;28;20040;-82
2021/03/25 04:34:35;;;;;;;31.02;17.38;;;5.40;59.10;;;;;;5054105;28;20025;-86
2021/03/25 04:37:02;;;;;;;32.05;16.27;;;5.50;59.20;;;;;;5054235;28;20029;-82
2021/03/25 04:39:28;;;;;;;30.98;16.63;;;5.40;59.10;;;;;;5053155;28;20475;-83
2021/03/25 04:41:55;;;;;;;34.55;17.33;;;5.40;59.10;;;;;;5054084;28;20106;-81
2021/03/25 04:44:24;;;;;;;37.38;16.83;;;5.40;59.10;;;;;;5059652;28;20130;-82
2021/03/25 04:47:31;;;;;;;28.83;16.35;;;5.40;59.10;;;;;;5072480;28;20403;-82
2021/03/25 04:50:12;;;;;;;31.27;16.58;;;5.40;59.20;;;;;;5073933;28;20035;-83
2021/03/25 04:52:37;;;;;;;40.38;19.23;;;5.40;59.10;;;;;;5073393;28;20071;-83
2021/03/25 04:55:14;;;;;;;62.47;30.98;;;5.40;59.00;;;;;;5073047;28;20044;-83
2021/03/25 04:57:57;;;;;;;73.43;35.72;;;5.40;59.30;;;;;;5071708;28;20032;-85
2021/03/25 05:00:29;;;;;;;60.40;29.83;;;5.30;59.20;;;;;;5054257;28;20025;-84
2021/03/25 05:02:56;;;;;;;58.33;28.10;;;5.40;59.20;;;;;;5054019;28;20024;-84
2021/03/25 05:05:25;;;;;;;43.15;23.25;;;5.40;59.20;;;;;;5053161;28;20367;-80
2021/03/25 05:08:07;;;;;;;50.30;25.83;;;5.30;59.20;;;;;;5058032;28;20040;-83
2021/03/25 05:10:42;;;;;;;39.00;21.02;;;5.30;59.40;;;;;;5053232;28;20539;-82
2021/03/25 05:13:34;;;;;;;37.63;18.02;;;5.30;59.50;;;;;;5052638;28;20033;-82
2021/03/25 05:16:18;;;;;;;36.38;19.70;;;5.30;59.50;;;;;;5053583;28;20086;-82
2021/03/25 05:18:59;;;;;;;43.53;20.38;;;5.30;59.50;;;;;;5069805;28;20037;-83
2021/03/25 05:21:42;;;;;;;43.67;19.38;;;5.30;59.60;;;;;;5072272;28;20032;-83
2021/03/25 05:24:36;;;;;;;39.25;22.15;;;5.40;59.50;;;;;;5077951;28;20025;-85
2021/03/25 05:27:11;;;;;;;37.22;20.42;;;5.40;59.70;;;;;;5058308;28;20098;-85
2021/03/25 05:29:39;;;;;;;38.65;21.95;;;5.40;59.70;;;;;;5053033;28;20033;-84
2021/03/25 05:32:07;;;;;;;36.60;18.67;;;5.40;59.70;;;;;;5056120;28;20036;-84
2021/03/25 05:34:34;;;;;;;41.00;21.08;;;5.40;59.70;;;;;;5057242;28;20386;-83
2021/03/25 05:37:00;;;;;;;34.53;17.95;;;5.50;59.90;;;;;;5053024;28;20021;-84
2021/03/25 05:39:27;;;;;;;31.10;17.08;;;5.50;59.90;;;;;;5063871;28;20025;-85
2021/03/25 05:42:09;;;;;;;32.03;17.25;;;5.50;59.90;;;;;;5053797;28;20048;-85
2021/03/25 05:45:03;;;;;;;36.20;19.58;;;5.50;60.00;;;;;;5068677;28;20116;-82
2021/03/25 05:47:43;;;;;;;36.45;19.17;;;5.60;60.10;;;;;;5061009;28;20121;-86
2021/03/25 05:50:21;;;;;;;32.83;18.23;;;5.70;60.00;;;;;;5052352;28;20057;-83
2021/03/25 05:53:03;;;;;;;37.13;20.25;;;5.70;60.10;;;;;;5052435;28;20037;-83
2021/03/25 05:55:43;;;;;;;40.35;20.90;;;5.80;60.40;;;;;;5052690;28;20021;-82
2021/03/25 05:58:31;;;;;;;38.55;19.48;;;5.80;60.50;;;;;;5055390;28;20040;-82
2021/03/25 06:01:12;;;;;;;40.88;20.73;;;5.90;60.60;;;;;;5061133;28;20031;-84
2021/03/25 06:03:46;;;;;;;35.47;19.27;;;6.00;60.70;;;;;;5072101;28;20020;-83
2021/03/25 06:06:22;;;;;;;35.22;20.08;;;6.00;60.60;;;;;;5073531;28;20139;-85
2021/03/25 06:08:59;;;;;;;35.10;17.73;;;6.10;60.70;;;;;;5053805;28;20033;-84
2021/03/25 06:11:49;;;;;;;33.30;17.88;;;6.20;60.60;;;;;;5053255;28;20110;-82
2021/03/25 06:14:42;;;;;;;51.97;22.40;;;6.20;60.50;;;;;;5052200;28;20025;-83
2021/03/25 06:17:27;;;;;;;43.58;23.25;;;6.30;60.40;;;;;;5071194;28;20029;-83
2021/03/25 06:20:03;;;;;;;;;;;6.40;60.50;;;;;;5053967;28;20470;-83
2021/03/25 06:23:02;;;;;;;44.72;20.85;;;6.50;60.00;;;;;;5065918;28;19904;-83
2021/03/25 06:26:01;;;;;;;39.42;20.52;;;6.50;60.10;;;;;;5073475;28;20028;-83
2021/03/25 06:29:03;;;;;;;49.78;22.35;;;6.60;60.20;;;;;;5086134;28;20033;-83
2021/03/25 06:31:29;;;;;;;44.38;22.08;;;6.60;60.30;;;;;;5055702;28;20102;-84
2021/03/25 06:34:06;;;;;;;37.75;20.17;;;6.70;60.30;;;;;;5055380;28;20063;-83
2021/03/25 06:36:44;;;;;;;33.25;19.13;;;6.80;60.40;;;;;;5055593;28;20028;-85
2021/03/25 06:39:20;;;;;;;45.13;21.83;;;6.80;60.20;;;;;;5056878;28;20107;-85
2021/03/25 06:41:50;;;;;;;46.33;22.42;;;6.90;60.20;;;;;;5055179;28;20382;-84
2021/03/25 06:44:22;;;;;;;53.95;20.23;;;7.00;60.20;;;;;;5055740;28;20028;-83
2021/03/25 06:47:19;;;;;;;36.25;19.80;;;7.10;60.10;;;;;;5071983;28;20032;-84
2021/03/25 06:49:51;;;;;;;35.17;18.67;;;7.20;60.10;;;;;;5071674;28;20045;-84
2021/03/25 06:52:23;;;;;;;38.08;20.35;;;7.20;60.00;;;;;;5071796;28;20098;-84
2021/03/25 06:54:51;;;;;;;44.45;20.63;;;7.30;59.90;;;;;;5071899;28;20025;-84
2021/03/25 06:57:19;;;;;;;40.42;20.95;;;7.40;59.90;;;;;;5071944;28;20136;-84
2021/03/25 06:59:46;;;;;;;39.05;20.73;;;7.50;59.90;;;;;;5058415;28;20032;-84
2021/03/25 07:02:22;;;;;;;44.45;22.25;;;7.60;59.80;;;;;;5070731;28;20059;-85
2021/03/25 07:04:51;;;;;;;39.15;22.23;;;7.70;59.70;;;;;;5071577;28;20029;-83
2021/03/25 07:07:27;;;;;;;43.15;22.17;;;7.80;59.60;;;;;;5071708;28;20543;-85
2021/03/25 07:09:53;;;;;;;40.45;20.05;;;7.80;59.40;;;;;;5062906;28;20025;-83
2021/03/25 07:12:41;;;;;;;45.58;22.45;;;7.90;59.20;;;;;;5060617;28;20398;-84
2021/03/25 07:15:17;;;;;;;40.17;22.48;;;8.00;59.20;;;;;;5055274;28;20036;-83
2021/03/25 07:17:44;;;;;;;49.70;24.10;;;8.10;59.10;;;;;;5053595;28;20155;-85
2021/03/25 07:20:32;;;;;;;36.83;21.58;;;8.20;59.00;;;;;;5055144;28;20082;-85
2021/03/25 07:23:19;;;;;;;48.72;24.60;;;8.30;59.00;;;;;;5055383;28;20368;-84
2021/03/25 07:25:50;;;;;;;60.97;26.33;;;8.40;58.80;;;;;;5054515;28;20108;-84
2021/03/25 07:28:21;;;;;;;47.40;24.92;;;8.50;58.70;;;;;;5054760;28;20025;-86
2021/03/25 07:30:50;;;;;;;50.15;26.63;;;8.60;58.50;;;;;;5068408;28;20036;-84
2021/03/25 07:33:19;;;;;;;47.97;27.17;;;8.70;58.50;;;;;;5074435;28;20028;-85
2021/03/25 07:35:49;;;;;;;62.42;32.47;;;8.70;58.30;;;;;;5074365;28;20097;-85
2021/03/25 07:38:23;;;;;;;64.60;35.45;;;8.80;58.20;;;;;;5070026;28;20040;-84
2021/03/25 07:41:05;;;;;;;56.85;30.67;;;8.90;57.90;;;;;;5069370;28;20428;-85
2021/03/25 07:43:47;;;;;;;73.07;33.13;;;8.90;57.80;;;;;;5074545;28;20536;-85
2021/03/25 07:46:42;;;;;;;69.07;35.03;;;9.00;57.80;;;;;;5075221;28;20016;-85
2021/03/25 07:49:12;;;;;;;71.78;36.95;;;9.00;57.70;;;;;;5069190;28;20043;-84
2021/03/25 07:51:50;;;;;;;64.15;33.72;;;9.10;57.60;;;;;;5073918;28;20056;-85
2021/03/25 07:54:25;;;;;;;68.20;34.45;;;9.20;57.40;;;;;;5073969;28;20020;-84
2021/03/25 07:57:04;;;;;;;77.80;37.15;;;9.20;57.40;;;;;;5073649;28;20078;-85
2021/03/25 07:59:40;;;;;;;70.40;38.58;;;9.30;57.40;;;;;;5073486;28;20052;-84
2021/03/25 08:02:35;;;;;;;88.68;41.85;;;9.40;57.40;;;;;;5073679;28;20490;-85
2021/03/25 08:05:19;;;;;;;77.05;40.10;;;9.40;57.20;;;;;;5074927;28;20070;-83
2021/03/25 08:07:46;;;;;;;84.38;39.97;;;9.50;57.20;;;;;;5065891;28;20082;-84
2021/03/25 08:10:45;;;;;;;70.35;37.25;;;9.60;57.00;;;;;;5054839;28;20471;-83
2021/03/25 08:13:15;;;;;;;68.65;32.85;;;9.70;56.80;;;;;;5055062;28;20095;-86
2021/03/25 08:15:49;;;;;;;72.95;34.95;;;9.70;56.60;;;;;;5053857;28;20029;-89
2021/03/25 08:18:27;;;;;;;66.13;34.65;;;9.80;56.40;;;;;;5053799;28;20065;-85
2021/03/25 08:21:07;;;;;;;62.75;32.25;;;9.80;56.20;;;;;;5055969;28;20478;-88
2021/03/25 08:23:49;;;;;;;56.80;29.30;;;9.90;56.30;;;;;;5053655;28;20031;-87
2021/03/25 08:26:30;;;;;;;64.00;31.92;;;9.90;56.30;;;;;;5055045;28;20052;-87
2021/03/25 08:29:14;;;;;;;72.30;34.38;;;10.00;56.30;;;;;;5053671;28;20470;-87
2021/03/25 08:32:28;;;;;;;61.45;31.63;;;10.10;56.20;;;;;;5053900;28;20040;-81
2021/03/25 08:35:15;;;;;;;64.90;32.92;;;10.10;56.20;;;;;;5054767;28;20033;-86
2021/03/25 08:38:07;;;;;;;78.38;37.17;;;10.20;56.10;;;;;;5053270;28;20046;-83
2021/03/25 08:40:44;;;;;;;80.38;37.78;;;10.30;55.60;;;;;;5054209;28;20017;-86
2021/03/25 08:43:32;;;;;;;58.90;31.02;;;10.40;55.20;;;;;;5054083;28;20021;-82
2021/03/25 08:46:03;;;;;;;49.97;26.90;;;10.50;55.40;;;;;;5052776;28;20109;-83
2021/03/25 08:49:03;;;;;;;72.95;32.88;;;10.60;55.50;;;;;;5053152;28;20037;-83
2021/03/25 08:51:39;;;;;;;64.30;30.38;;;10.60;55.20;;;;;;5051800;28;20103;-83
2021/03/25 08:54:20;;;;;;;69.68;35.92;;;10.70;55.20;;;;;;5052536;28;20032;-83
2021/03/25 08:56:47;;;;;;;57.58;32.83;;;10.80;55.10;;;;;;5053943;28;20029;-82
2021/03/25 08:59:25;;;;;;;60.67;31.73;;;10.90;55.10;;;;;;5052768;28;20443;-83
2021/03/25 09:02:21;;;;;;;62.97;31.88;;;11.00;54.70;;;;;;5054323;28;20025;-81
2021/03/25 09:05:05;;;;;;;56.13;27.50;;;11.10;54.60;;;;;;5053881;28;20733;-84
2021/03/25 09:07:33;;;;;;;46.08;25.42;;;11.20;54.70;;;;;;5054029;28;20482;-83
2021/03/25 09:10:06;;;;;;;42.28;25.67;;;11.30;54.70;;;;;;5052762;28;20536;-86
2021/03/25 09:12:33;;;;;;;37.22;21.25;;;11.40;54.40;;;;;;5071373;28;20040;-88
2021/03/25 09:15:02;;;;;;;35.65;20.48;;;11.50;54.30;;;;;;5055468;28;20083;-84
2021/03/25 09:17:37;;;;;;;45.47;22.48;;;11.60;54.20;;;;;;5052111;28;20398;-85
2021/03/25 09:20:07;;;;;;;;;;;11.70;53.80;;;;;;5052968;28;20036;-77
2021/03/25 09:22:58;;;;;;;47.22;24.67;;;11.80;54.40;;;;;;5053496;28;19916;-83
2021/03/25 09:25:26;;;;;;;43.13;23.13;;;12.00;53.50;;;;;;5062851;28;20032;-84
2021/03/25 09:27:58;;;;;;;47.25;24.85;;;12.00;53.30;;;;;;5070767;28;20090;-82
2021/03/25 09:30:33;;;;;;;42.45;23.50;;;12.10;53.20;;;;;;5052349;28;20029;-83
2021/03/25 09:33:17;;;;;;;;;;;12.20;53.20;;;;;;5061154;28;20021;-82
2021/03/25 09:35:45;;;;;;;39.03;22.15;;;12.30;53.80;;;;;;5058411;28;20463;-82
2021/03/25 09:38:25;;;;;;;43.60;23.02;;;12.40;52.80;;;;;;5052075;28;20474;-86
2021/03/25 09:40:53;;;;;;;46.47;21.95;;;12.50;52.60;;;;;;5067600;28;20025;-85
2021/03/25 09:43:43;;;;;;;32.03;20.23;;;12.50;52.70;;;;;;5072812;28;20542;-84
2021/03/25 09:46:27;;;;;;;38.40;22.80;;;12.60;52.80;;;;;;5073321;28;20025;-84
2021/03/25 09:48:56;;;;;;;30.35;19.08;;;12.70;52.80;;;;;;5073073;28;20476;-83
2021/03/25 09:51:29;;;;;;;32.28;18.83;;;12.80;52.50;;;;;;5075831;28;20101;-83
2021/03/25 09:53:59;;;;;;;32.65;19.38;;;12.90;52.50;;;;;;5071899;28;20060;-84
2021/03/25 09:56:27;;;;;;;33.40;18.25;;;13.00;52.10;;;;;;5059271;28;20028;-83
2021/03/25 09:58:53;;;;;;;31.45;16.65;;;13.00;52.50;;;;;;5061954;28;20443;-84
2021/03/25 10:01:43;;;;;;;34.35;19.33;;;13.10;51.50;;;;;;5051794;28;20063;-84
2021/03/25 10:04:26;;;;;;;26.58;15.35;;;13.20;51.20;;;;;;5053381;28;20021;-83
2021/03/25 10:06:56;;;;;;;25.13;14.90;;;13.30;50.60;;;;;;5076673;28;20024;-85
2021/03/25 10:09:47;;;;;;;21.83;13.35;;;13.40;50.20;;;;;;5055306;28;20432;-82
2021/03/25 10:12:33;;;;;;;29.02;14.93;;;13.40;49.90;;;;;;5054677;28;20028;-83
2021/03/25 10:14:59;;;;;;;26.23;13.85;;;13.50;48.90;;;;;;5062776;28;20092;-84
2021/03/25 10:17:48;;;;;;;21.48;13.35;;;13.60;49.00;;;;;;5060421;28;20028;-83
2021/03/25 10:20:52;;;;;;;21.08;12.30;;;13.70;49.00;;;;;;5071180;28;20029;-82
2021/03/25 10:23:32;;;;;;;25.53;13.23;;;13.80;48.70;;;;;;5071220;28;20024;-84
2021/03/25 10:26:03;;;;;;;19.15;11.40;;;13.90;47.70;;;;;;5055645;28;20110;-85
2021/03/25 10:28:37;;;;;;;25.73;13.80;;;13.90;47.30;;;;;;5055266;28;20033;-85
2021/03/25 10:31:24;;;;;;;20.33;11.73;;;14.00;47.00;;;;;;5055090;28;20036;-83
2021/03/25 10:33:55;;;;;;;20.38;10.98;;;14.10;47.40;;;;;;5088348;28;20542;-82
2021/03/25 10:36:40;;;;;;;21.45;11.63;;;14.10;46.70;;;;;;5064177;28;20037;-79
2021/03/25 10:39:15;;;;;;;21.65;11.10;;;14.20;46.10;;;;;;5054539;28;20505;-76
2021/03/25 10:41:41;;;;;;;;;;;14.30;46.70;;;;;;5056594;28;20029;-78
2021/03/25 10:44:37;;;;;;;18.88;10.70;;;14.40;47.40;;;;;;5065974;28;19939;-81
2021/03/25 10:47:07;;;;;;;18.98;11.15;;;14.50;45.70;;;;;;5073757;28;20025;-81
2021/03/25 10:49:46;;;;;;;20.42;11.32;;;14.60;45.00;;;;;;5073762;28;20090;-81
2021/03/25 10:52:26;;;;;;;19.13;10.75;;;14.60;44.50;;;;;;5075138;28;20122;-82
2021/03/25 10:54:56;;;;;;;20.50;11.57;;;14.70;44.20;;;;;;5078294;28;20432;-81
2021/03/25 10:57:29;;;;;;;24.80;11.38;;;14.80;43.80;;;;;;5079422;28;20066;-81
2021/03/25 11:00:15;;;;;;;29.50;11.50;;;14.80;43.50;;;;;;5093874;28;20030;-81
2021/03/25 11:02:43;;;;;;;21.83;11.05;;;14.90;43.40;;;;;;5090487;28;20043;-81
2021/03/25 11:05:24;;;;;;;30.35;12.60;;;15.00;43.50;;;;;;5093663;28;20039;-81
2021/03/25 11:08:01;;;;;;;28.95;12.70;;;15.00;43.10;;;;;;5077915;28;20162;-80
2021/03/25 11:10:27;;;;;;;36.95;12.55;;;15.10;42.80;;;;;;5074003;28;20033;-81
2021/03/25 11:13:03;;;;;;;25.60;11.88;;;15.10;42.90;;;;;;5074436;28;20036;-81
2021/03/25 11:15:31;;;;;;;28.55;12.50;;;15.20;42.90;;;;;;5073488;28;20028;-81
2021/03/25 11:18:00;;;;;;;22.80;13.25;;;15.30;42.70;;;;;;5057112;28;20051;-81
2021/03/25 11:20:28;;;;;;;29.40;12.80;;;15.30;42.20;;;;;;5075037;28;20475;-81
2021/03/25 11:22:56;;;;;;;19.85;11.07;;;15.40;41.80;;;;;;5069720;28;20043;-81
2021/03/25 11:25:28;;;;;;;18.35;10.90;;;15.40;41.70;;;;;;5055436;28;20402;-81
2021/03/25 11:28:06;;;;;;;25.48;10.95;;;15.50;42.50;;;;;;5057024;28;20017;-81
2021/03/25 11:30:40;;;;;;;22.10;10.20;;;15.60;42.00;;;;;;5056670;28;20021;-81
2021/03/25 11:33:29;;;;;;;21.67;11.15;;;15.60;41.90;;;;;;5072156;28;20100;-80
2021/03/25 11:36:01;;;;;;;18.75;10.63;;;15.70;41.80;;;;;;5056805;28;20056;-81
2021/03/25 11:38:30;;;;;;;24.15;11.30;;;15.80;41.90;;;;;;5056515;28;20021;-81
2021/03/25 11:41:18;;;;;;;19.98;12.32;;;15.80;41.70;;;;;;5056545;28;20021;-81
2021/03/25 11:43:57;;;;;;;25.85;12.65;;;15.90;41.60;;;;;;5052398;28;20094;-81
2021/03/25 11:46:27;;;;;;;20.60;12.13;;;15.90;41.00;;;;;;5055078;28;20071;-80
2021/03/25 11:49:04;;;;;;;22.77;12.52;;;16.00;41.40;;;;;;5056869;28;20021;-81
2021/03/25 11:51:30;;;;;;;17.15;10.50;;;16.10;41.60;;;;;;5071152;28;20048;-81
2021/03/25 11:53:57;;;;;;;25.88;12.52;;;16.10;41.80;;;;;;5083996;28;20023;-82
2021/03/25 11:56:35;;;;;;;22.88;13.25;;;16.20;41.30;;;;;;5085436;28;20028;-79
2021/03/25 11:59:23;;;;;;;23.58;13.60;;;16.30;40.70;;;;;;5091357;28;20046;-77
2021/03/25 12:01:49;;;;;;;24.40;12.00;;;16.30;40.70;;;;;;5087515;28;20013;-78
2021/03/25 12:04:15;;;;;;;24.40;13.48;;;16.40;40.80;;;;;;5075366;28;20080;-79
2021/03/25 12:07:05;;;;;;;24.88;12.70;;;16.40;40.40;;;;;;5077233;28;20029;-79
2021/03/25 12:09:33;;;;;;;24.63;12.05;;;16.50;40.70;;;;;;5077336;28;20015;-80
2021/03/25 12:12:01;;;;;;;24.58;13.63;;;16.60;40.70;;;;;;5078242;28;20009;-78
2021/03/25 12:14:27;;;;;;;21.25;12.20;;;16.60;40.00;;;;;;5077513;28;20006;-81
2021/03/25 12:16:56;;;;;;;24.38;13.13;;;16.70;40.30;;;;;;5078537;28;20021;-77
2021/03/25 12:19:22;;;;;;;23.85;13.82;;;16.80;39.60;;;;;;5079371;28;20051;-79
2021/03/25 12:21:48;;;;;;;21.73;12.30;;;16.80;39.40;;;;;;5078559;28;20057;-81
2021/03/25 12:24:14;;;;;;;26.10;14.45;;;16.90;39.70;;;;;;5078444;28;20009;-82
2021/03/25 12:26:40;;;;;;;25.52;13.60;;;16.90;38.90;;;;;;5078708;28;20024;-80
2021/03/25 12:29:06;;;;;;;20.27;12.07;;;17.00;39.40;;;;;;5078919;28;20017;-80
2021/03/25 12:31:35;;;;;;;26.38;13.88;;;17.00;39.30;;;;;;5078167;28;20020;-80
2021/03/25 12:34:01;;;;;;;21.92;12.45;;;17.10;38.80;;;;;;5068241;28;20040;-83
2021/03/25 12:36:28;;;;;;;25.23;14.02;;;17.20;39.30;;;;;;5054369;28;20474;-82
2021/03/25 12:38:55;;;;;;;25.38;13.38;;;17.20;38.60;;;;;;5054087;28;20029;-81
2021/03/25 12:41:43;;;;;;;20.70;11.38;;;17.30;38.60;;;;;;5064794;28;20029;-82
2021/03/25 12:44:12;;;;;;;24.45;14.30;;;17.30;39.10;;;;;;5064676;28;20033;-82
2021/03/25 12:46:38;;;;;;;30.15;13.93;;;17.40;38.40;;;;;;5057938;28;20020;-85
2021/03/25 12:49:04;;;;;;;22.10;13.40;;;17.40;38.00;;;;;;5071753;28;20392;-82
2021/03/25 12:51:30;;;;;;;27.52;11.88;;;17.40;38.60;;;;;;5064018;28;20144;-84
2021/03/25 12:53:56;;;;;;;21.75;12.07;;;17.50;38.30;;;;;;5074348;28;20032;-84
2021/03/25 12:56:28;;;;;;;28.30;13.23;;;17.50;38.10;;;;;;5074346;28;20493;-85
2021/03/25 12:58:55;;;;;;;24.08;13.68;;;17.60;38.20;;;;;;5075118;28;20020;-86
2021/03/25 13:01:27;;;;;;;24.60;12.38;;;17.60;37.60;;;;;;5074596;28;20048;-82
2021/03/25 13:03:54;;;;;;;21.60;12.60;;;17.70;37.30;;;;;;5075569;28;20021;-82
2021/03/25 13:06:20;;;;;;;20.85;12.63;;;17.70;37.00;;;;;;5076705;28;20028;-84
2021/03/25 13:08:47;;;;;;;24.27;13.48;;;17.70;37.10;;;;;;5078307;28;20382;-83
2021/03/25 13:11:15;;;;;;;24.60;11.85;;;17.80;36.60;;;;;;5077572;28;20028;-82
2021/03/25 13:13:41;;;;;;;27.90;13.20;;;17.80;37.10;;;;;;5076646;28;20039;-82
2021/03/25 13:16:07;;;;;;;20.23;12.25;;;17.90;37.10;;;;;;5076885;28;20028;-83